Time;durP1;ratioP1;P1;durP2;ratioP2;P2;SDS_P1;SDS_P2;PMS_P1;PMS_P2;Temp;Humidity;BMP_temperature;BMP_pressure;BME280_temperature;BME280_humidity;BME280_pressure;Samples;Min_cycle;Max_cycle;Signal;HPM_P1;HPM_P2
2021/05/22 00:04:11;;;;;;;2.27;0.70;;;;;;;11.14;100.00;100886.78;1684655;84;22317;-85
2021/05/22 00:06:37;;;;;;;1.47;0.80;;;;;;;11.07;100.00;100879.45;1684887;85;20905;-85
2021/05/22 00:09:05;;;;;;;5.53;0.85;;;;;;;11.04;100.00;100877.27;1684800;85;21236;-84
2021/05/22 00:11:31;;;;;;;4.62;0.90;;;;;;;10.99;100.00;100875.33;1684698;85;21276;-85
2021/05/22 00:13:57;;;;;;;1.98;0.90;;;;;;;10.93;100.00;100880.39;1684856;83;21603;-84
2021/05/22 00:16:23;;;;;;;7.65;1.20;;;;;;;10.89;100.00;100877.94;1684736;84;21086;-84
2021/05/22 00:18:49;;;;;;;3.15;0.78;;;;;;;10.86;100.00;100882.49;1684375;85;21013;-84
2021/05/22 00:21:15;;;;;;;3.35;1.10;;;;;;;10.81;100.00;100881.89;1684464;85;21799;-85
2021/05/22 00:23:41;;;;;;;11.03;1.00;;;;;;;10.75;100.00;100884.26;1684231;85;21028;-84
2021/05/22 00:26:06;;;;;;;5.00;1.02;;;;;;;10.72;100.00;100886.66;1684456;85;20914;-84
2021/05/22 00:28:32;;;;;;;3.75;0.90;;;;;;;10.65;100.00;100879.58;1684342;85;20965;-85
2021/05/22 00:30:58;;;;;;;2.70;1.10;;;;;;;10.57;100.00;100881.37;1661097;85;20898;-84
2021/05/22 00:33:24;;;;;;;1.62;0.80;;;;;;;10.51;100.00;100893.70;1684111;85;21658;-84
2021/05/22 00:35:50;;;;;;;2.85;1.02;;;;;;;10.48;100.00;100904.98;1684304;85;20897;-84
2021/05/22 00:38:16;;;;;;;3.85;0.90;;;;;;;10.40;100.00;100916.46;1684618;84;21091;-84
2021/05/22 00:40:42;;;;;;;4.28;1.10;;;;;;;10.32;100.00;100919.59;1684263;85;21092;-85
2021/05/22 00:43:08;;;;;;;5.62;1.10;;;;;;;10.21;100.00;100912.44;1684550;85;21084;-85
2021/05/22 00:45:35;;;;;;;13.05;1.40;;;;;;;10.21;100.00;100908.39;1684252;85;21076;-84
2021/05/22 00:48:02;;;;;;;4.75;1.15;;;;;;;10.19;100.00;100899.20;1661056;85;21153;-84
2021/05/22 00:50:43;;;;;;;3.90;1.12;;;;;;;10.17;100.00;100893.77;1684244;85;21088;-85
2021/05/22 00:53:10;;;;;;;2.15;1.30;;;;;;;10.17;100.00;100898.63;1684738;85;21064;-84
2021/05/22 00:55:36;;;;;;;7.70;1.50;;;;;;;10.16;100.00;100885.42;1684341;85;21093;-85
2021/05/22 00:58:04;;;;;;;5.92;1.45;;;;;;;10.19;100.00;100886.27;1684456;85;21344;-85
2021/05/22 01:00:49;;;;;;;1.17;1.00;;;;;;;10.18;100.00;100877.92;1713832;79;21360;-84
2021/05/22 01:06:19;;;;;;;1.55;1.10;;;;;;;10.15;100.00;100875.19;1681814;85;22526;-85
2021/05/22 01:08:48;;;;;;;2.87;1.30;;;;;;;10.16;100.00;100883.54;1681950;85;21613;-85
2021/05/22 01:11:22;;;;;;;3.80;1.50;;;;;;;10.16;100.00;100871.96;1682100;85;21581;-84
2021/05/22 01:14:01;;;;;;;4.45;1.20;;;;;;;10.15;100.00;100879.23;1681871;85;22277;-85
2021/05/22 01:16:27;;;;;;;2.58;1.17;;;;;;;10.17;100.00;100890.55;1598513;88;21141;-85
2021/05/22 01:18:54;;;;;;;2.72;1.40;;;;;;;10.14;100.00;100902.36;1598888;89;20990;-84
2021/05/22 01:21:21;;;;;;;2.37;1.15;;;;;;;10.13;100.00;100897.50;1598833;89;21077;-85
2021/05/22 01:23:56;;;;;;;3.55;1.30;;;;;;;10.16;100.00;100884.08;1598798;89;21243;-85
2021/05/22 01:26:24;;;;;;;3.45;1.60;;;;;;;10.18;100.00;100884.12;1601744;88;21099;-85
2021/05/22 01:28:51;;;;;;;8.65;1.67;;;;;;;10.20;100.00;100882.50;1598862;89;21113;-85
2021/05/22 01:31:18;;;;;;;2.80;1.32;;;;;;;10.20;100.00;100877.92;1598654;89;21041;-85
2021/05/22 01:33:44;;;;;;;4.25;1.62;;;;;;;10.18;100.00;100868.49;1598490;89;21081;-85
2021/05/22 01:36:10;;;;;;;3.22;1.55;;;;;;;10.14;100.00;100874.08;1598730;89;21765;-85
2021/05/22 01:38:36;;;;;;;3.98;1.60;;;;;;;10.17;100.00;100871.70;1598530;88;21684;-85
2021/05/22 01:41:02;;;;;;;4.65;1.90;;;;;;;10.21;100.00;100870.69;1577971;89;20926;-85
2021/05/22 01:43:28;;;;;;;3.90;1.57;;;;;;;10.23;100.00;100871.23;1614415;88;21107;-86
2021/05/22 01:45:55;;;;;;;4.78;1.92;;;;;;;10.27;100.00;100872.95;1625954;88;21642;-85
2021/05/22 01:48:25;;;;;;;3.70;1.90;;;;;;;10.35;100.00;100871.97;1625538;86;21138;-84
2021/05/22 01:51:07;;;;;;;3.95;2.12;;;;;;;10.39;100.00;100865.55;1625660;88;21103;-85
2021/05/22 01:53:36;;;;;;;6.50;2.25;;;;;;;10.41;100.00;100870.13;1662043;83;21618;-84
2021/05/22 01:56:03;;;;;;;3.35;1.75;;;;;;;10.43;100.00;100874.20;1728490;83;21032;-85
2021/05/22 01:58:29;;;;;;;5.25;2.10;;;;;;;10.47;100.00;100878.58;1728192;83;21039;-85
2021/05/22 02:00:55;;;;;;;7.03;2.08;;;;;;;10.50;100.00;100879.42;1728230;83;21659;-85
2021/05/22 02:03:42;;;;;;;5.17;1.85;;;;;;;10.55;100.00;100874.06;1777820;79;21062;-84
2021/05/22 02:06:15;;;;;;;4.47;1.98;;;;;;;10.55;100.00;100874.60;1628568;87;21679;-85
2021/05/22 02:08:43;;;;;;;;;;;;;;;10.60;100.00;100878.71;1628358;88;21088;-84
2021/05/22 02:11:10;;;;;;;5.25;1.77;;;;;;;10.65;100.00;100887.67;1628416;88;20267;-85
2021/05/22 02:13:38;;;;;;;4.95;1.90;;;;;;;10.76;100.00;100896.66;1628479;88;21723;-84
2021/05/22 02:16:05;;;;;;;3.83;1.67;;;;;;;10.86;100.00;100895.97;1628397;86;21238;-84
2021/05/22 02:18:35;;;;;;;3.65;1.65;;;;;;;10.93;100.00;100900.61;1628492;88;21695;-85
2021/05/22 02:21:03;;;;;;;5.50;2.08;;;;;;;11.01;100.00;100898.00;1628515;88;21097;-84
2021/05/22 02:23:33;;;;;;;7.17;2.02;;;;;;;11.04;100.00;100896.14;1628558;88;21056;-84
2021/05/22 02:25:59;;;;;;;3.33;1.87;;;;;;;11.07;100.00;100896.44;1628389;88;21126;-85
2021/05/22 02:28:35;;;;;;;2.42;1.42;;;;;;;11.14;100.00;100904.31;1628442;88;21081;-84
2021/05/22 02:31:02;;;;;;;5.47;1.77;;;;;;;11.25;100.00;100902.53;1628443;88;21096;-84
2021/05/22 02:33:31;;;;;;;5.05;2.00;;;;;;;11.35;100.00;100909.35;1628431;88;21092;-84
2021/05/22 02:35:57;;;;;;;2.72;1.70;;;;;;;11.38;100.00;100907.48;1628521;88;21450;-84
2021/05/22 02:38:28;;;;;;;3.83;1.85;;;;;;;11.39;100.00;100906.98;1632169;86;21148;-84
2021/05/22 02:40:59;;;;;;;3.25;1.40;;;;;;;11.41;100.00;100904.27;1647905;85;21056;-84
2021/05/22 02:43:28;;;;;;;3.65;1.75;;;;;;;11.32;100.00;100910.70;1670995;85;21087;-84
2021/05/22 02:45:56;;;;;;;3.22;1.60;;;;;;;11.43;100.00;100910.23;1674973;85;21079;-84
2021/05/22 02:48:23;;;;;;;5.90;1.70;;;;;;;11.43;100.00;100918.33;1674757;85;21639;-84
2021/05/22 02:50:51;;;;;;;4.95;1.67;;;;;;;11.55;100.00;100919.50;1682677;84;21607;-84
2021/05/22 02:53:21;;;;;;;4.90;1.75;;;;;;;11.68;100.00;100928.53;1675267;84;21990;-83
2021/05/22 02:55:49;;;;;;;2.35;1.50;;;;;;;11.72;100.00;100924.23;1675003;85;21083;-84
2021/05/22 02:58:18;;;;;;;4.62;1.77;;;;;;;11.83;100.00;100929.98;1687134;84;21128;-84
2021/05/22 03:00:44;;;;;;;3.87;1.75;;;;;;;11.96;100.00;100930.62;1619934;88;21033;-84
2021/05/22 03:03:11;;;;;;;3.62;1.72;;;;;;;11.99;100.00;100931.45;1654488;85;20975;-83
2021/05/22 03:05:38;;;;;;;2.87;1.17;;;;;;;12.08;100.00;100933.13;1676550;85;21164;-84
2021/05/22 03:08:05;;;;;;;6.55;1.60;;;;;;;12.16;100.00;100934.80;1676697;85;21068;-84
2021/05/22 03:10:31;;;;;;;7.15;1.50;;;;;;;12.28;100.00;100928.64;1676695;85;21059;-84
2021/05/22 03:12:57;;;;;;;3.47;1.60;;;;;;;12.31;100.00;100923.26;1697712;83;21068;-84
2021/05/22 03:15:23;;;;;;;3.52;1.50;;;;;;;12.38;100.00;100921.14;1705009;84;21679;-84
2021/05/22 03:17:49;;;;;;;4.22;2.00;;;;;;;12.41;100.00;100919.27;1704817;84;21120;-84
2021/05/22 03:20:15;;;;;;;3.62;1.62;;;;;;;12.50;100.00;100919.03;1704914;84;21686;-84
2021/05/22 03:22:41;;;;;;;4.45;1.35;;;;;;;12.56;100.00;100925.78;1696453;82;20972;-84
2021/05/22 03:25:08;;;;;;;2.92;1.47;;;;;;;12.63;100.00;100930.42;1690521;82;21056;-84
2021/05/22 03:27:37;;;;;;;4.33;1.47;;;;;;;12.65;100.00;100938.55;1695484;82;21649;-84
2021/05/22 03:30:06;;;;;;;2.77;1.42;;;;;;;13.10;100.00;100951.92;1689803;82;21055;-84
2021/05/22 03:32:32;;;;;;;4.90;1.70;;;;;;;13.50;100.00;100954.45;1701676;83;21496;-84
2021/05/22 03:34:58;;;;;;;4.12;1.55;;;;;;;13.75;100.00;100960.38;1696978;84;20900;-84
2021/05/22 03:37:24;;;;;;;9.78;1.65;;;;;;;13.98;100.00;100958.20;1697096;84;21471;-84
2021/05/22 03:39:50;;;;;;;5.30;1.75;;;;;;;14.18;100.00;100963.59;1677666;84;20943;-84
2021/05/22 03:42:16;;;;;;;1.72;1.37;;;;;;;14.18;100.00;100973.07;1699753;84;20897;-83
2021/05/22 03:44:42;;;;;;;5.62;1.52;;;;;;;14.30;100.00;100978.20;1699895;84;20955;-83
2021/05/22 03:47:08;;;;;;;4.85;1.40;;;;;;;14.36;100.00;100993.36;1699951;84;20905;-83
2021/05/22 03:49:34;;;;;;;5.67;2.00;;;;;;;14.62;100.00;101012.28;1699948;84;20884;-83
2021/05/22 03:52:00;;;;;;;4.03;1.62;;;;;;;14.72;100.00;101019.84;1700250;84;21723;-83
2021/05/22 03:54:26;;;;;;;4.28;1.70;;;;;;;14.99;100.00;101025.44;1699842;84;21044;-83
2021/05/22 03:56:55;;;;;;;6.65;1.80;;;;;;;15.04;100.00;101027.33;1721004;79;20891;-84
2021/05/22 03:59:21;;;;;;;4.10;1.72;;;;;;;15.19;100.00;101028.60;1812218;79;21043;-84
2021/05/22 04:01:47;;;;;;;9.85;2.12;;;;;;;15.25;100.00;101038.89;1807481;79;20919;-84
2021/05/22 04:04:13;;;;;;;4.40;2.25;;;;;;;15.29;100.00;101044.02;1812310;79;21109;-84
2021/05/22 04:06:39;;;;;;;4.42;1.87;;;;;;;15.55;100.00;101048.75;1812279;79;20863;-84
2021/05/22 04:09:06;;;;;;;6.40;1.95;;;;;;;15.81;100.00;101042.06;1787152;79;20974;-84
2021/05/22 04:11:32;;;;;;;5.35;1.77;;;;;;;16.09;100.00;101035.61;1812279;79;21043;-84
2021/05/22 04:13:58;;;;;;;3.67;1.65;;;;;;;16.43;100.00;101035.52;1812255;79;21679;-84
2021/05/22 04:16:23;;;;;;;3.50;1.30;;;;;;;16.81;100.00;101043.84;1812201;79;21025;-84
2021/05/22 04:18:49;;;;;;;5.53;1.62;;;;;;;16.94;100.00;101043.68;1787098;79;20888;-84
2021/05/22 04:21:15;;;;;;;3.85;1.90;;;;;;;17.22;100.00;101045.50;1812215;79;20974;-84
2021/05/22 04:23:41;;;;;;;9.98;1.98;;;;;;;17.34;100.00;101041.53;1812246;79;20935;-84
2021/05/22 04:26:08;;;;;;;6.62;1.62;;;;;;;17.47;100.00;101041.61;1787093;79;20895;-84
2021/05/22 04:28:34;;;;;;;2.50;1.42;;;;;;;17.71;100.00;101044.24;1787290;79;21124;-83
2021/05/22 04:31:00;;;;;;;6.15;2.02;;;;;;;17.78;100.00;101053.43;1812028;79;20967;-84
2021/05/22 04:33:26;;;;;;;2.87;1.55;;;;;;;17.92;100.00;101061.67;1812288;79;20895;-83
2021/05/22 04:35:52;;;;;;;4.53;1.80;;;;;;;18.12;100.00;101073.61;1812298;79;20918;-84
2021/05/22 04:38:18;;;;;;;4.90;1.70;;;;;;;18.06;95.35;101074.80;1812335;79;21030;-83
2021/05/22 04:40:44;;;;;;;4.58;1.60;;;;;;;18.49;100.00;101066.40;1806720;79;21034;-83
2021/05/22 04:43:10;;;;;;;6.55;1.87;;;;;;;18.92;88.47;101066.16;1806262;78;21569;-84
2021/05/22 04:45:36;;;;;;;3.50;1.87;;;;;;;19.61;84.59;101067.94;1777120;79;21555;-84
2021/05/22 04:48:03;;;;;;;4.10;1.87;;;;;;;20.75;73.55;101062.89;1806580;79;20931;-83
2021/05/22 04:50:30;;;;;;;5.25;1.90;;;;;;;20.84;62.06;101065.09;1806517;79;21579;-83
2021/05/22 04:52:56;;;;;;;4.08;2.33;;;;;;;22.22;66.85;101063.58;1806471;79;21861;-83
2021/05/22 04:55:22;;;;;;;4.83;1.70;;;;;;;23.01;55.12;101065.47;1806286;79;21527;-83
2021/05/22 04:57:48;;;;;;;2.17;1.60;;;;;;;22.49;52.35;101075.86;1801459;79;20888;-83
2021/05/22 05:00:17;;;;;;;4.40;1.67;;;;;;;23.74;50.91;101078.89;1806294;79;21546;-83
2021/05/22 05:02:43;;;;;;;3.92;1.90;;;;;;;24.90;52.41;101080.30;1802177;79;21058;-83
2021/05/22 05:05:10;;;;;;;2.42;1.50;;;;;;;24.09;44.49;101081.87;1806304;79;21840;-82
2021/05/22 05:07:42;;;;;;;4.47;1.60;;;;;;;24.96;45.64;101072.60;1806463;79;22408;-82
2021/05/22 05:10:12;;;;;;;5.28;1.42;;;;;;;23.98;46.08;101080.92;1806280;79;21045;-83
2021/05/22 05:12:38;;;;;;;4.47;1.40;;;;;;;23.58;45.65;101086.91;1776819;78;21587;-82
2021/05/22 05:15:06;;;;;;;6.20;1.60;;;;;;;22.27;44.28;101088.70;1806394;79;20991;-83
2021/05/22 05:17:33;;;;;;;7.60;1.60;;;;;;;23.78;46.90;101088.64;1806387;79;21106;-83
2021/05/22 05:19:59;;;;;;;4.60;1.70;;;;;;;24.69;46.63;101086.73;1806395;79;21011;-83
2021/05/22 05:22:27;;;;;;;9.58;1.92;;;;;;;24.07;43.70;101095.98;1806454;79;20995;-85
2021/05/22 05:24:56;;;;;;;4.33;1.55;;;;;;;23.35;41.41;101098.00;1806307;79;21011;-84
2021/05/22 05:27:22;;;;;;;3.70;1.15;;;;;;;23.97;41.16;101093.09;1806358;78;21070;-83
2021/05/22 05:29:48;;;;;;;1.67;1.12;;;;;;;22.78;42.75;101087.47;1806410;79;21039;-84
2021/05/22 05:32:15;;;;;;;3.37;1.30;;;;;;;22.33;42.99;101100.31;1806449;79;21424;-84
2021/05/22 05:34:41;;;;;;;5.17;1.40;;;;;;;22.23;43.82;101103.62;1806421;79;21030;-82
2021/05/22 05:37:11;;;;;;;5.37;1.60;;;;;;;21.85;44.74;101110.34;1806352;79;21526;-84
2021/05/22 05:39:39;;;;;;;2.20;1.20;;;;;;;23.51;44.02;101118.86;1801220;78;21015;-84
2021/05/22 05:42:06;;;;;;;6.83;1.40;;;;;;;24.29;42.89;101122.91;1806438;79;21036;-84
2021/05/22 05:44:32;;;;;;;2.70;1.40;;;;;;;23.27;41.47;101124.44;1806342;79;21498;-83
2021/05/22 05:46:58;;;;;;;5.65;1.50;;;;;;;24.20;40.29;101123.79;1806396;79;21015;-84
2021/05/22 05:49:31;;;;;;;3.27;1.30;;;;;;;22.97;40.80;101108.52;1806293;79;20884;-85
2021/05/22 05:51:58;;;;;;;5.67;1.75;;;;;;;23.19;42.54;101112.11;1778526;79;21098;-83
2021/05/22 05:54:28;;;;;;;3.20;1.17;;;;;;;23.43;40.94;101119.72;1777282;79;21831;-83
2021/05/22 05:56:54;;;;;;;2.30;1.42;;;;;;;23.48;38.92;101118.16;1806528;79;21609;-83
2021/05/22 05:59:20;;;;;;;5.10;1.57;;;;;;;23.11;38.55;101113.19;1806411;79;20967;-84
2021/05/22 06:01:46;;;;;;;4.37;2.00;;;;;;;22.96;37.77;101112.38;1806403;79;21042;-83
2021/05/22 06:04:12;;;;;;;3.90;1.70;;;;;;;23.87;38.87;101099.00;1806374;79;20982;-83
2021/05/22 06:06:38;;;;;;;4.87;1.60;;;;;;;23.60;37.30;101100.91;1806356;79;21625;-84
2021/05/22 06:09:06;;;;;;;5.42;1.37;;;;;;;24.92;38.44;101101.45;1806479;79;20962;-84
2021/05/22 06:11:34;;;;;;;1.50;1.27;;;;;;;26.07;35.91;101102.95;1806369;79;21640;-84
2021/05/22 06:14:00;;;;;;;3.70;1.52;;;;;;;26.55;35.49;101105.81;1806328;79;21050;-84
2021/05/22 06:18:53;;;;;;;1.52;1.42;;;;;;;28.89;31.57;101118.66;1806350;78;20872;-82
2021/05/22 06:21:21;;;;;;;3.87;1.50;;;;;;;29.67;31.44;101120.41;1806140;79;21046;-83
2021/05/22 06:23:48;;;;;;;2.10;1.50;;;;;;;29.31;30.04;101115.73;1806455;79;21059;-82
2021/05/22 06:26:15;;;;;;;4.05;1.30;;;;;;;27.78;29.75;101116.02;1806353;79;21042;-82
2021/05/22 06:28:41;;;;;;;9.28;2.02;;;;;;;25.15;34.76;101123.30;1806351;79;21594;-82
2021/05/22 06:31:07;;;;;;;4.58;1.40;;;;;;;26.53;32.19;101129.65;1806457;79;21096;-84
2021/05/22 06:33:34;;;;;;;3.77;1.15;;;;;;;28.09;31.11;101126.73;1806244;79;21015;-82
2021/05/22 06:36:00;;;;;;;6.42;1.42;;;;;;;27.48;30.24;101121.87;1806212;79;20955;-84
2021/05/22 06:38:26;;;;;;;11.63;1.70;;;;;;;27.15;31.52;101124.51;1806323;79;21562;-84
2021/05/22 06:40:53;;;;;;;6.35;1.45;;;;;;;26.93;34.79;101130.06;1810655;79;21006;-84
2021/05/22 06:43:18;;;;;;;3.08;1.10;;;;;;;26.64;33.60;101123.82;1811988;78;21113;-84
2021/05/22 06:45:47;;;;;;;3.45;1.50;;;;;;;25.38;33.45;101119.48;1812008;78;21483;-84
2021/05/22 06:48:14;;;;;;;10.30;1.50;;;;;;;26.21;33.78;101115.77;1811912;79;21022;-83
2021/05/22 06:50:41;;;;;;;6.05;1.50;;;;;;;25.91;33.47;101117.28;1811801;79;21629;-82
2021/05/22 06:53:08;;;;;;;3.45;1.30;;;;;;;25.00;34.30;101100.53;1812146;78;21602;-82
2021/05/22 06:55:34;;;;;;;7.60;1.20;;;;;;;25.48;35.67;101099.46;1812059;79;21110;-83
2021/05/22 06:58:00;;;;;;;2.90;1.20;;;;;;;25.21;33.72;101105.12;1811804;79;21590;-83
2021/05/22 07:03:00;;;;;;;1.62;1.12;;;;;;;25.13;36.11;101102.15;1567818;91;21138;-82
2021/05/22 07:05:26;;;;;;;3.17;1.20;;;;;;;23.69;35.13;101120.34;1568983;91;21206;-84
2021/05/22 07:07:52;;;;;;;2.12;1.10;;;;;;;24.74;36.36;101105.55;1568644;91;21015;-83
2021/05/22 07:10:17;;;;;;;1.30;1.00;;;;;;;24.29;36.09;101105.00;1568756;91;21178;-83
2021/05/22 07:12:43;;;;;;;7.05;1.22;;;;;;;24.22;36.54;101101.42;1568811;91;21613;-83
2021/05/22 07:15:11;;;;;;;13.25;5.42;;;;;;;24.23;35.08;101102.45;1568836;91;21115;-83
2021/05/22 07:17:37;;;;;;;1.62;1.12;;;;;;;24.30;34.83;101096.41;1568144;90;21166;-83
2021/05/22 07:20:05;;;;;;;1.20;1.10;;;;;;;24.09;35.52;101114.91;1544728;91;21166;-84
2021/05/22 07:22:31;;;;;;;4.33;1.22;;;;;;;23.92;35.86;101100.76;1568957;91;21569;-84
2021/05/22 07:24:57;;;;;;;3.87;1.37;;;;;;;23.57;37.02;101096.88;1565650;91;21276;-84
2021/05/22 07:27:22;;;;;;;6.00;1.47;;;;;;;23.95;37.29;101084.36;1548772;91;21628;-84
2021/05/22 07:29:51;;;;;;;3.72;1.07;;;;;;;24.46;37.27;101086.93;1568536;91;21181;-84
2021/05/22 07:32:16;;;;;;;12.10;1.37;;;;;;;24.20;35.02;101093.48;1568573;90;21155;-84
2021/05/22 07:34:42;;;;;;;3.77;1.47;;;;;;;26.00;34.93;101082.02;1549650;91;21047;-84
2021/05/22 07:37:08;;;;;;;3.85;0.98;;;;;;;26.40;32.72;101045.98;1569303;90;21194;-84
2021/05/22 07:39:34;;;;;;;5.95;1.40;;;;;;;27.59;31.74;101078.02;1568888;90;21004;-84
2021/05/22 07:42:01;;;;;;;3.98;1.50;;;;;;;24.75;33.43;101059.74;1569918;90;21281;-83
2021/05/22 07:44:30;;;;;;;5.42;1.10;;;;;;;25.33;34.79;101063.73;1568821;91;21646;-84
2021/05/22 07:46:55;;;;;;;2.58;1.17;;;;;;;24.53;33.25;101082.22;1567926;91;21117;-85
2021/05/22 07:49:21;;;;;;;6.58;1.20;;;;;;;24.67;33.31;101057.89;1571630;89;21000;-85
2021/05/22 07:51:47;;;;;;;5.95;1.47;;;;;;;24.74;35.74;101059.52;1569228;89;20974;-87
2021/05/22 07:54:14;;;;;;;6.62;1.40;;;;;;;24.69;34.38;101066.05;1571633;89;21089;-83
2021/05/22 07:56:40;;;;;;;4.67;1.30;;;;;;;23.29;34.43;101074.58;1568888;89;21146;-86
2021/05/22 07:59:06;;;;;;;2.05;1.12;;;;;;;24.78;34.21;101064.56;1600157;79;21575;-86
2021/05/22 08:01:35;;;;;;;6.15;1.25;;;;;;;23.68;35.61;101065.07;1783566;78;21104;-84
2021/05/22 08:04:01;;;;;;;2.55;1.40;;;;;;;24.74;35.09;101063.66;1777304;79;21051;-84
2021/05/22 08:06:27;;;;;;;4.67;1.30;;;;;;;25.37;34.44;101049.45;1779011;79;20842;-85
2021/05/22 08:08:53;;;;;;;1.32;1.10;;;;;;;25.95;33.92;101057.44;1786327;78;21795;-85
2021/05/22 08:11:20;;;;;;;2.87;1.37;;;;;;;26.04;33.38;101037.36;1778522;79;20906;-85
2021/05/22 08:13:46;;;;;;;2.83;1.17;;;;;;;26.04;33.38;101037.36;1783035;79;21577;-84
2021/05/22 08:16:12;;;;;;;2.83;1.20;;;;;;;25.43;33.95;101037.02;1781158;78;21092;-84
2021/05/22 08:18:38;;;;;;;3.15;1.00;;;;;;;24.11;33.77;101039.66;1773807;79;21552;-84
2021/05/22 08:21:05;;;;;;;2.12;1.37;;;;;;;23.87;35.72;101049.45;1766621;79;21088;-86
2021/05/22 08:23:31;;;;;;;3.30;1.35;;;;;;;24.31;34.56;101038.78;1784697;78;21588;-85
2021/05/22 08:25:58;;;;;;;5.20;1.35;;;;;;;24.85;34.84;101042.72;1783558;79;21146;-84
2021/05/22 08:28:27;;;;;;;2.85;1.45;;;;;;;24.72;34.48;101030.69;1780431;79;21068;-84
2021/05/22 08:30:52;;;;;;;4.97;1.25;;;;;;;24.20;35.91;101035.65;1792705;78;21021;-86
2021/05/22 08:33:18;;;;;;;3.72;1.45;;;;;;;25.34;34.92;101032.22;1780990;78;21115;-85
2021/05/22 08:35:44;;;;;;;5.15;1.10;;;;;;;24.82;34.94;101031.59;1793327;78;21043;-86
2021/05/22 08:38:11;;;;;;;2.27;0.88;;;;;;;25.95;35.32;101023.72;1781616;78;21023;-86
2021/05/22 08:40:37;;;;;;;3.55;0.93;;;;;;;25.58;34.43;101025.81;1775059;77;21073;-86
2021/05/22 08:43:04;;;;;;;2.00;1.20;;;;;;;26.33;34.39;101025.67;1782548;79;21054;-86
2021/05/22 08:45:31;;;;;;;9.00;1.25;;;;;;;25.38;33.74;101042.22;1798438;79;21054;-85
2021/05/22 08:47:58;;;;;;;6.15;1.17;;;;;;;26.31;35.17;101027.98;1797596;79;21057;-87
2021/05/22 08:50:25;;;;;;;4.47;1.05;;;;;;;26.94;31.68;101034.84;1797345;79;21057;-85
2021/05/22 08:52:54;;;;;;;6.12;1.20;;;;;;;26.73;31.93;101042.86;1811162;78;21042;-85
2021/05/22 08:55:19;;;;;;;6.35;0.90;;;;;;;26.05;34.08;101050.80;1830890;78;20999;-84
2021/05/22 08:57:45;;;;;;;2.72;0.82;;;;;;;25.51;34.55;101044.94;1830970;77;21737;-84
2021/05/22 09:00:15;;;;;;;7.67;0.98;;;;;;;27.37;31.06;101038.59;1823932;77;20853;-84
2021/05/22 09:02:43;;;;;;;28.57;1.52;;;;;;;26.88;30.24;101045.97;1816268;77;21037;-86
2021/05/22 09:05:21;;;;;;;3.25;0.80;;;;;;;26.58;32.89;101031.83;1828008;77;21066;-85
2021/05/22 09:07:57;;;;;;;4.08;1.10;;;;;;;27.52;31.98;101037.70;1846058;77;21621;-85
2021/05/22 09:10:43;;;;;;;5.30;1.02;;;;;;;27.19;30.07;101036.83;1833165;77;21123;-85
2021/05/22 09:13:17;;;;;;;8.53;1.50;;;;;;;28.60;28.83;101032.20;1806728;78;21095;-85
2021/05/22 09:15:43;;;;;;;5.70;1.35;;;;;;;26.79;30.38;101039.25;1772450;80;21044;-85
2021/05/22 09:18:17;;;;;;;1.02;0.82;;;;;;;25.31;32.42;101043.37;1770143;80;21075;-86
2021/05/22 09:20:55;;;;;;;6.10;1.07;;;;;;;25.37;32.99;101037.04;1777076;80;21087;-85
2021/05/22 09:23:24;;;;;;;3.05;1.00;;;;;;;25.46;31.51;101036.90;1749454;80;21138;-86
2021/05/22 09:25:59;;;;;;;1.37;0.80;;;;;;;24.83;32.81;101033.22;1770557;80;21766;-85
2021/05/22 09:28:28;;;;;;;2.72;0.90;;;;;;;25.69;31.86;101022.78;1763079;80;21035;-85
2021/05/22 09:30:56;;;;;;;3.02;0.72;;;;;;;25.92;31.92;101020.86;1753565;80;21134;-86
2021/05/22 09:33:25;;;;;;;3.50;1.00;;;;;;;25.15;31.24;101019.86;1757842;81;21035;-86
2021/05/22 09:36:03;;;;;;;4.22;1.07;;;;;;;25.02;33.03;101007.20;1761009;81;21654;-86
2021/05/22 09:38:52;;;;;;;4.50;0.90;;;;;;;24.37;32.61;101007.68;1736696;81;21052;-87
2021/05/22 09:41:35;;;;;;;4.70;1.17;;;;;;;23.91;34.64;101010.45;1689042;84;21640;-87
2021/05/22 09:44:10;;;;;;;2.45;1.07;;;;;;;23.66;34.86;101015.63;1652649;84;21126;-86
2021/05/22 09:46:50;;;;;;;5.65;0.90;;;;;;;24.25;36.04;101012.60;1649533;86;21677;-89
2021/05/22 09:49:29;;;;;;;10.65;1.45;;;;;;;24.74;35.33;101009.08;1613425;88;21702;-86
2021/05/22 09:52:02;;;;;;;2.87;1.20;;;;;;;24.75;33.75;101017.02;1528092;92;21253;-86
2021/05/22 09:54:52;;;;;;;1.12;0.80;;;;;;;24.56;33.03;101019.53;1523901;93;21111;-87
2021/05/22 09:57:21;;;;;;;2.92;1.00;;;;;;;24.14;35.12;101016.94;1514034;93;21087;-86
2021/05/22 10:00:12;;;;;;;4.83;1.10;;;;;;;24.09;34.96;101015.23;1504308;93;21252;-87
2021/05/22 10:02:51;;;;;;;6.58;1.12;;;;;;;25.15;36.45;101006.66;1525568;93;22055;-86
2021/05/22 10:05:25;;;;;;;2.52;1.20;;;;;;;24.87;33.12;101029.98;1526962;93;21723;-88
2021/05/22 10:07:54;;;;;;;4.55;0.72;;;;;;;24.56;34.77;101022.29;1524083;92;21162;-87
2021/05/22 10:10:23;;;;;;;1.02;0.90;;;;;;;25.04;33.48;101009.63;1526966;92;21164;-87
2021/05/22 10:12:51;;;;;;;2.62;0.72;;;;;;;24.30;34.64;101015.14;1526399;92;21100;-86
2021/05/22 10:15:19;;;;;;;4.25;0.85;;;;;;;24.00;31.82;101033.22;1530349;92;21623;-87
2021/05/22 10:17:45;;;;;;;3.42;0.88;;;;;;;23.67;33.89;101028.23;1533600;91;21124;-88
2021/05/22 10:20:14;;;;;;;1.80;0.80;;;;;;;23.38;34.35;101031.31;1538180;91;21135;-85
2021/05/22 10:22:44;;;;;;;6.83;0.90;;;;;;;23.33;34.93;101038.41;1534983;91;21152;-86
2021/05/22 10:25:11;;;;;;;3.67;0.80;;;;;;;23.62;35.58;101024.31;1538411;91;21675;-86
2021/05/22 10:27:37;;;;;;;4.67;1.10;;;;;;;23.40;34.77;101024.91;1546893;91;21794;-88
2021/05/22 10:30:07;;;;;;;5.65;1.00;;;;;;;23.31;34.51;101013.98;1558606;90;21141;-87
2021/05/22 10:32:33;;;;;;;2.55;1.17;;;;;;;23.85;35.42;101010.44;1552570;92;21086;-89
2021/05/22 10:35:16;;;;;;;5.22;1.20;;;;;;;23.95;34.65;101002.34;1552605;92;21543;-88
2021/05/22 10:37:48;;;;;;;11.78;1.30;;;;;;;24.29;34.93;101005.25;1590088;89;21058;-87
2021/05/22 10:40:24;;;;;;;3.85;1.02;;;;;;;25.06;34.58;101008.13;1599266;89;21579;-88
2021/05/22 10:42:55;;;;;;;3.42;0.90;;;;;;;25.06;34.58;101008.13;1658935;86;21555;-87
2021/05/22 10:45:31;;;;;;;3.70;0.90;;;;;;;24.33;34.60;101017.79;1661956;86;21575;-85
2021/05/22 10:48:01;;;;;;;1.72;1.02;;;;;;;23.22;34.29;101038.56;1702625;79;21070;-87
2021/05/22 10:50:44;;;;;;;5.53;1.20;;;;;;;23.11;36.81;101034.82;1796217;79;21033;-86
2021/05/22 10:53:29;;;;;;;2.95;0.93;;;;;;;23.37;37.09;101036.59;1831530;77;21827;-89
2021/05/22 10:56:11;;;;;;;1.90;0.80;;;;;;;23.48;34.50;101048.00;1844902;77;21023;-87
2021/05/22 10:59:07;;;;;;;1.62;0.80;;;;;;;23.32;34.46;101039.53;1853198;77;21568;-86
2021/05/22 11:01:35;;;;;;;1.37;0.72;;;;;;;23.57;34.24;101046.78;1837112;77;21568;-89
2021/05/22 11:04:14;;;;;;;3.87;1.50;;;;;;;23.86;33.99;101058.06;1861049;77;20977;-89
2021/05/22 11:06:50;;;;;;;4.12;1.20;;;;;;;23.76;34.29;101041.38;1860612;77;22008;-88
2021/05/22 11:09:37;;;;;;;1.22;0.80;;;;;;;23.32;36.03;101040.36;1861234;77;21516;-88
2021/05/22 11:12:14;;;;;;;4.70;1.30;;;;;;;23.30;36.62;101030.25;1859704;77;21044;-87
2021/05/22 11:14:54;;;;;;;5.95;0.85;;;;;;;23.49;36.02;101043.52;1851719;77;21091;-86
2021/05/22 11:17:26;;;;;;;4.80;1.30;;;;;;;23.49;34.49;101028.39;1855756;77;21035;-87
2021/05/22 11:20:04;;;;;;;3.50;0.72;;;;;;;23.96;35.73;101032.27;1845276;77;21886;-87
2021/05/22 11:22:53;;;;;;;4.42;1.27;;;;;;;23.59;35.08;101029.95;1859395;77;21549;-88
2021/05/22 11:25:18;;;;;;;2.12;1.45;;;;;;;23.42;34.79;101024.02;1847861;77;21421;-88
2021/05/22 11:30:36;;;;;;;3.90;0.85;;;;;;;23.79;34.69;101015.35;1850218;77;20982;-87
2021/05/22 11:33:28;;;;;;;8.18;1.05;;;;;;;24.40;33.95;101010.55;1855634;77;21590;-87
2021/05/22 11:36:14;;;;;;;5.83;1.77;;;;;;;25.30;33.90;100996.84;1838342;77;20951;-86
2021/05/22 11:38:40;;;;;;;16.48;3.90;;;;;;;24.60;31.79;101005.31;1851658;77;21524;-86
2021/05/22 11:41:08;;;;;;;3.92;1.00;;;;;;;24.10;33.26;100997.55;1860658;77;21553;-86
2021/05/22 11:43:39;;;;;;;3.95;1.12;;;;;;;23.75;33.10;100999.30;1856668;77;21056;-86